EUE weather

Eureka Airport
Eureka, Nevada, United States

Public forecast

Using degrees Fahrenheit for public forecast. Weather courtesy of forecast.io.

METAR (pilot weather report)

Retrieved UTC (0 seconds ago):

TAF (pilot weather forecast)

Closest forecast is Ely Airport Yelland Field, 56.9 nm (105.4 km) ESE. Retrieved 2019/07/22 18:27 UTC (5 hours ago):

TAF KELY 221825Z 2218/2318 18009KT P6SM FEW300 FM221900 19010G18KT P6SM SCT130 SCT300 FM230200 19009KT P6SM FEW140 BKN250